sensor_id;sensor_type;location;lat;lon;timestamp;pressure;altitude;pressure_sealevel;temperature;humidity
76819;BME280;65772;51.096;17.006;2023-11-19T00:01:45;100738.41;;;7.28;63.84
76819;BME280;65772;51.096;17.006;2023-11-19T00:04:16;100732.52;;;7.30;63.69
76819;BME280;65772;51.096;17.006;2023-11-19T00:06:47;100730.69;;;7.30;63.64
76819;BME280;65772;51.096;17.006;2023-11-19T00:09:17;100717.42;;;7.30;63.61
76819;BME280;65772;51.096;17.006;2023-11-19T00:11:48;100710.77;;;7.29;63.54
76819;BME280;65772;51.096;17.006;2023-11-19T00:14:21;100700.17;;;7.28;63.68
76819;BME280;65772;51.096;17.006;2023-11-19T00:16:53;100692.45;;;7.26;63.66
76819;BME280;65772;51.096;17.006;2023-11-19T00:19:24;100683.75;;;7.25;63.68
76819;BME280;65772;51.096;17.006;2023-11-19T00:21:55;100671.92;;;7.26;63.85
76819;BME280;65772;51.096;17.006;2023-11-19T00:24:26;100668.89;;;7.27;63.98
76819;BME280;65772;51.096;17.006;2023-11-19T00:26:57;100668.06;;;7.28;63.89
76819;BME280;65772;51.096;17.006;2023-11-19T00:29:28;100663.29;;;7.27;63.78
76819;BME280;65772;51.096;17.006;2023-11-19T00:31:58;100661.46;;;7.28;63.77
76819;BME280;65772;51.096;17.006;2023-11-19T00:34:29;100654.55;;;7.29;63.82
76819;BME280;65772;51.096;17.006;2023-11-19T00:37:00;100643.73;;;7.30;64.02
76819;BME280;65772;51.096;17.006;2023-11-19T00:39:33;100642.05;;;7.31;63.85
76819;BME280;65772;51.096;17.006;2023-11-19T00:42:04;100644.25;;;7.30;63.76
76819;BME280;65772;51.096;17.006;2023-11-19T00:44:35;100647.91;;;7.28;63.68
76819;BME280;65772;51.096;17.006;2023-11-19T00:47:06;100641.33;;;7.26;63.64
76819;BME280;65772;51.096;17.006;2023-11-19T00:49:36;100625.02;;;7.23;63.56
76819;BME280;65772;51.096;17.006;2023-11-19T00:52:07;100609.33;;;7.21;63.67
76819;BME280;65772;51.096;17.006;2023-11-19T00:54:37;100603.02;;;7.20;63.57
76819;BME280;65772;51.096;17.006;2023-11-19T00:57:08;100607.06;;;7.19;63.57
76819;BME280;65772;51.096;17.006;2023-11-19T00:59:38;100609.98;;;7.20;63.42
76819;BME280;65772;51.096;17.006;2023-11-19T01:02:11;100610.60;;;7.23;63.45
76819;BME280;65772;51.096;17.006;2023-11-19T01:04:43;100601.48;;;7.24;63.38
76819;BME280;65772;51.096;17.006;2023-11-19T01:07:15;100582.15;;;7.24;63.15
76819;BME280;65772;51.096;17.006;2023-11-19T01:09:45;100575.05;;;7.25;63.36
76819;BME280;65772;51.096;17.006;2023-11-19T01:12:16;100560.61;;;7.25;63.14
76819;BME280;65772;51.096;17.006;2023-11-19T01:14:46;100553.15;;;7.25;63.07
76819;BME280;65772;51.096;17.006;2023-11-19T01:17:17;100543.42;;;7.24;63.01
76819;BME280;65772;51.096;17.006;2023-11-19T01:19:47;100539.13;;;7.23;62.87
76819;BME280;65772;51.096;17.006;2023-11-19T01:22:19;100531.60;;;7.21;62.91
76819;BME280;65772;51.096;17.006;2023-11-19T01:24:50;100520.95;;;7.18;62.75
76819;BME280;65772;51.096;17.006;2023-11-19T01:27:21;100517.27;;;7.16;62.65
76819;BME280;65772;51.096;17.006;2023-11-19T01:29:53;100510.70;;;7.14;62.61
76819;BME280;65772;51.096;17.006;2023-11-19T01:32:24;100505.59;;;7.14;62.54
76819;BME280;65772;51.096;17.006;2023-11-19T01:34:54;100509.27;;;7.12;62.57
76819;BME280;65772;51.096;17.006;2023-11-19T01:37:25;100500.82;;;7.09;62.48
76819;BME280;65772;51.096;17.006;2023-11-19T01:39:56;100494.59;;;7.07;62.36
76819;BME280;65772;51.096;17.006;2023-11-19T01:42:28;100487.73;;;7.05;62.43
76819;BME280;65772;51.096;17.006;2023-11-19T01:45:01;100482.60;;;7.04;62.60
76819;BME280;65772;51.096;17.006;2023-11-19T01:47:32;100488.27;;;7.02;62.56
76819;BME280;65772;51.096;17.006;2023-11-19T01:50:03;100495.13;;;7.00;62.30
76819;BME280;65772;51.096;17.006;2023-11-19T01:52:37;100499.92;;;6.97;62.28
76819;BME280;65772;51.096;17.006;2023-11-19T01:55:10;100492.27;;;6.93;62.13
76819;BME280;65772;51.096;17.006;2023-11-19T01:57:42;100476.89;;;6.91;62.27
76819;BME280;65772;51.096;17.006;2023-11-19T02:00:14;100471.39;;;6.90;62.52
76819;BME280;65772;51.096;17.006;2023-11-19T02:02:45;100467.10;;;6.88;62.32
76819;BME280;65772;51.096;17.006;2023-11-19T02:05:16;100460.27;;;6.87;62.20
76819;BME280;65772;51.096;17.006;2023-11-19T02:07:48;100454.17;;;6.87;62.34
76819;BME280;65772;51.096;17.006;2023-11-19T02:10:19;100460.42;;;6.87;62.28
76819;BME280;65772;51.096;17.006;2023-11-19T02:12:50;100463.68;;;6.84;62.17
76819;BME280;65772;51.096;17.006;2023-11-19T02:15:20;100467.66;;;6.82;62.39
76819;BME280;65772;51.096;17.006;2023-11-19T02:17:53;100460.78;;;6.80;62.28
76819;BME280;65772;51.096;17.006;2023-11-19T02:20:24;100447.08;;;6.77;62.23
76819;BME280;65772;51.096;17.006;2023-11-19T02:22:55;100440.73;;;6.75;62.26
76819;BME280;65772;51.096;17.006;2023-11-19T02:25:29;100437.29;;;6.75;62.22
76819;BME280;65772;51.096;17.006;2023-11-19T02:28:02;100438.58;;;6.73;62.20
76819;BME280;65772;51.096;17.006;2023-11-19T02:30:32;100437.45;;;6.71;62.20
76819;BME280;65772;51.096;17.006;2023-11-19T02:33:02;100433.24;;;6.68;62.40
76819;BME280;65772;51.096;17.006;2023-11-19T02:35:35;100425.75;;;6.67;62.29
76819;BME280;65772;51.096;17.006;2023-11-19T02:38:06;100417.45;;;6.67;62.47
76819;BME280;65772;51.096;17.006;2023-11-19T02:40:37;100409.80;;;6.67;62.29
76819;BME280;65772;51.096;17.006;2023-11-19T02:43:08;100405.03;;;6.66;62.23
76819;BME280;65772;51.096;17.006;2023-11-19T02:45:38;100410.24;;;6.66;62.19
76819;BME280;65772;51.096;17.006;2023-11-19T02:48:09;100408.50;;;6.65;62.19
76819;BME280;65772;51.096;17.006;2023-11-19T02:50:40;100407.11;;;6.64;62.20
76819;BME280;65772;51.096;17.006;2023-11-19T02:53:10;100413.52;;;6.63;62.29
76819;BME280;65772;51.096;17.006;2023-11-19T02:55:42;100416.55;;;6.63;62.28
76819;BME280;65772;51.096;17.006;2023-11-19T02:58:17;100407.38;;;6.63;62.29
76819;BME280;65772;51.096;17.006;2023-11-19T03:00:53;100390.92;;;6.62;62.34
76819;BME280;65772;51.096;17.006;2023-11-19T03:03:28;100390.77;;;6.62;62.07
76819;BME280;65772;51.096;17.006;2023-11-19T03:06:08;100380.02;;;6.61;62.27
76819;BME280;65772;51.096;17.006;2023-11-19T03:08:39;100366.72;;;6.59;62.28
76819;BME280;65772;51.096;17.006;2023-11-19T03:11:09;100356.67;;;6.59;62.10
76819;BME280;65772;51.096;17.006;2023-11-19T03:13:40;100352.74;;;6.58;62.06
76819;BME280;65772;51.096;17.006;2023-11-19T03:16:11;100345.60;;;6.61;62.02
76819;BME280;65772;51.096;17.006;2023-11-19T03:18:41;100339.38;;;6.66;62.20
76819;BME280;65772;51.096;17.006;2023-11-19T03:21:12;100335.27;;;6.70;62.15
76819;BME280;65772;51.096;17.006;2023-11-19T03:23:43;100330.98;;;6.72;62.19
76819;BME280;65772;51.096;17.006;2023-11-19T03:26:13;100340.36;;;6.73;62.12
76819;BME280;65772;51.096;17.006;2023-11-19T03:28:44;100338.86;;;6.74;62.13
76819;BME280;65772;51.096;17.006;2023-11-19T03:31:14;100328.20;;;6.74;61.92
76819;BME280;65772;51.096;17.006;2023-11-19T03:33:45;100320.78;;;6.75;61.78
76819;BME280;65772;51.096;17.006;2023-11-19T03:36:16;100319.59;;;6.75;61.88
76819;BME280;65772;51.096;17.006;2023-11-19T03:38:46;100328.84;;;6.74;61.73
76819;BME280;65772;51.096;17.006;2023-11-19T03:41:17;100326.25;;;6.73;61.76
76819;BME280;65772;51.096;17.006;2023-11-19T03:43:47;100310.73;;;6.71;61.43
76819;BME280;65772;51.096;17.006;2023-11-19T03:46:20;100303.04;;;6.70;61.81
76819;BME280;65772;51.096;17.006;2023-11-19T03:48:51;100294.73;;;6.70;61.56
76819;BME280;65772;51.096;17.006;2023-11-19T03:51:21;100298.08;;;6.69;61.73
76819;BME280;65772;51.096;17.006;2023-11-19T03:53:52;100292.29;;;6.68;61.56
76819;BME280;65772;51.096;17.006;2023-11-19T03:56:23;100276.84;;;6.68;61.54
76819;BME280;65772;51.096;17.006;2023-11-19T03:58:53;100267.84;;;6.68;61.48
76819;BME280;65772;51.096;17.006;2023-11-19T04:01:24;100250.48;;;6.66;61.52
76819;BME280;65772;51.096;17.006;2023-11-19T04:03:54;100247.77;;;6.66;61.43
76819;BME280;65772;51.096;17.006;2023-11-19T04:06:27;100256.20;;;6.65;61.40
76819;BME280;65772;51.096;17.006;2023-11-19T04:08:58;100255.77;;;6.63;61.47
76819;BME280;65772;51.096;17.006;2023-11-19T04:11:29;100249.40;;;6.61;61.46
76819;BME280;65772;51.096;17.006;2023-11-19T04:13:59;100243.27;;;6.60;61.49
76819;BME280;65772;51.096;17.006;2023-11-19T04:16:30;100232.96;;;6.61;61.72
76819;BME280;65772;51.096;17.006;2023-11-19T04:19:00;100215.55;;;6.62;61.60
76819;BME280;65772;51.096;17.006;2023-11-19T04:21:31;100208.48;;;6.64;61.58
76819;BME280;65772;51.096;17.006;2023-11-19T04:24:02;100201.77;;;6.65;61.64
76819;BME280;65772;51.096;17.006;2023-11-19T04:26:32;100191.38;;;6.64;61.30
76819;BME280;65772;51.096;17.006;2023-11-19T04:29:03;100180.08;;;6.66;61.43
76819;BME280;65772;51.096;17.006;2023-11-19T04:31:34;100165.16;;;6.66;61.37
76819;BME280;65772;51.096;17.006;2023-11-19T04:34:04;100159.34;;;6.65;61.48
76819;BME280;65772;51.096;17.006;2023-11-19T04:36:35;100153.85;;;6.63;61.33
76819;BME280;65772;51.096;17.006;2023-11-19T04:39:06;100144.52;;;6.63;61.20
76819;BME280;65772;51.096;17.006;2023-11-19T04:41:48;100135.90;;;6.64;61.37
76819;BME280;65772;51.096;17.006;2023-11-19T04:44:19;100133.20;;;6.64;61.38
76819;BME280;65772;51.096;17.006;2023-11-19T04:46:49;100139.55;;;6.65;61.37
76819;BME280;65772;51.096;17.006;2023-11-19T04:49:20;100144.48;;;6.66;61.26
76819;BME280;65772;51.096;17.006;2023-11-19T04:51:51;100134.17;;;6.67;61.38
76819;BME280;65772;51.096;17.006;2023-11-19T04:54:21;100127.28;;;6.69;61.37
76819;BME280;65772;51.096;17.006;2023-11-19T04:56:52;100133.15;;;6.71;61.23
76819;BME280;65772;51.096;17.006;2023-11-19T04:59:22;100130.44;;;6.71;61.18
76819;BME280;65772;51.096;17.006;2023-11-19T05:01:53;100123.15;;;6.71;61.24
76819;BME280;65772;51.096;17.006;2023-11-19T05:04:23;100123.15;;;6.71;61.16
76819;BME280;65772;51.096;17.006;2023-11-19T05:06:54;100119.17;;;6.73;61.06
76819;BME280;65772;51.096;17.006;2023-11-19T05:09:25;100117.42;;;6.76;60.92
76819;BME280;65772;51.096;17.006;2023-11-19T05:11:55;100108.07;;;6.75;61.06
76819;BME280;65772;51.096;17.006;2023-11-19T05:14:26;100101.64;;;6.76;60.99
76819;BME280;65772;51.096;17.006;2023-11-19T05:16:57;100098.46;;;6.77;61.00
76819;BME280;65772;51.096;17.006;2023-11-19T05:19:27;100088.45;;;6.77;61.03
76819;BME280;65772;51.096;17.006;2023-11-19T05:21:58;100082.50;;;6.76;61.01
76819;BME280;65772;51.096;17.006;2023-11-19T05:24:28;100077.88;;;6.76;60.81
76819;BME280;65772;51.096;17.006;2023-11-19T05:26:59;100077.54;;;6.76;60.83
76819;BME280;65772;51.096;17.006;2023-11-19T05:29:30;100073.40;;;6.74;60.94
76819;BME280;65772;51.096;17.006;2023-11-19T05:32:00;100068.10;;;6.73;60.90
76819;BME280;65772;51.096;17.006;2023-11-19T05:34:31;100059.56;;;6.72;60.97
76819;BME280;65772;51.096;17.006;2023-11-19T05:37:01;100054.63;;;6.71;60.95
76819;BME280;65772;51.096;17.006;2023-11-19T05:39:32;100052.70;;;6.70;60.91
76819;BME280;65772;51.096;17.006;2023-11-19T05:42:03;100053.03;;;6.70;61.06
76819;BME280;65772;51.096;17.006;2023-11-19T05:44:34;100062.33;;;6.69;61.08
76819;BME280;65772;51.096;17.006;2023-11-19T05:47:08;100067.06;;;6.69;61.13
76819;BME280;65772;51.096;17.006;2023-11-19T05:49:38;100066.77;;;6.70;61.20
76819;BME280;65772;51.096;17.006;2023-11-19T05:52:09;100054.48;;;6.72;61.03
76819;BME280;65772;51.096;17.006;2023-11-19T05:54:41;100049.38;;;6.75;61.16
76819;BME280;65772;51.096;17.006;2023-11-19T05:57:11;100050.66;;;6.78;60.94
76819;BME280;65772;51.096;17.006;2023-11-19T05:59:43;100034.59;;;6.79;61.15
76819;BME280;65772;51.096;17.006;2023-11-19T06:02:14;100032.10;;;6.81;60.88
76819;BME280;65772;51.096;17.006;2023-11-19T06:04:44;100033.35;;;6.82;61.21
76819;BME280;65772;51.096;17.006;2023-11-19T06:07:17;100029.48;;;6.83;61.00
76819;BME280;65772;51.096;17.006;2023-11-19T06:09:47;100028.61;;;6.82;60.83
76819;BME280;65772;51.096;17.006;2023-11-19T06:12:18;100024.38;;;6.83;60.76
76819;BME280;65772;51.096;17.006;2023-11-19T06:14:48;100019.95;;;6.82;60.77
76819;BME280;65772;51.096;17.006;2023-11-19T06:17:19;100015.90;;;6.83;61.02
76819;BME280;65772;51.096;17.006;2023-11-19T06:19:49;100016.23;;;6.86;60.93
76819;BME280;65772;51.096;17.006;2023-11-19T06:22:20;100015.45;;;6.88;60.88
76819;BME280;65772;51.096;17.006;2023-11-19T06:24:50;100005.29;;;6.89;60.97
76819;BME280;65772;51.096;17.006;2023-11-19T06:27:22;100003.62;;;6.90;60.95
76819;BME280;65772;51.096;17.006;2023-11-19T06:29:53;100000.90;;;6.90;61.04
76819;BME280;65772;51.096;17.006;2023-11-19T06:32:24;99989.94;;;6.91;60.90
76819;BME280;65772;51.096;17.006;2023-11-19T06:34:54;99978.29;;;6.93;60.82
76819;BME280;65772;51.096;17.006;2023-11-19T06:37:25;99983.95;;;6.94;61.02
76819;BME280;65772;51.096;17.006;2023-11-19T06:39:56;99967.85;;;6.95;60.95
76819;BME280;65772;51.096;17.006;2023-11-19T06:42:27;99968.39;;;6.95;61.10
76819;BME280;65772;51.096;17.006;2023-11-19T06:44:57;99965.52;;;6.96;60.82
76819;BME280;65772;51.096;17.006;2023-11-19T06:47:28;99961.80;;;6.96;60.88
76819;BME280;65772;51.096;17.006;2023-11-19T06:49:59;99959.73;;;6.95;60.95
76819;BME280;65772;51.096;17.006;2023-11-19T06:52:30;99945.64;;;6.95;60.89
76819;BME280;65772;51.096;17.006;2023-11-19T06:55:00;99945.64;;;6.95;60.79
76819;BME280;65772;51.096;17.006;2023-11-19T06:57:33;99940.02;;;6.95;60.96
76819;BME280;65772;51.096;17.006;2023-11-19T07:00:07;99938.52;;;6.96;60.78
76819;BME280;65772;51.096;17.006;2023-11-19T07:02:38;99919.45;;;6.98;60.83
76819;BME280;65772;51.096;17.006;2023-11-19T07:05:10;99913.86;;;6.98;60.72
76819;BME280;65772;51.096;17.006;2023-11-19T07:07:41;99912.15;;;6.98;60.75
76819;BME280;65772;51.096;17.006;2023-11-19T07:10:12;99913.66;;;6.97;60.54
76819;BME280;65772;51.096;17.006;2023-11-19T07:12:42;99915.91;;;6.98;60.44
76819;BME280;65772;51.096;17.006;2023-11-19T07:15:14;99916.59;;;6.99;60.60
76819;BME280;65772;51.096;17.006;2023-11-19T07:17:46;99902.67;;;6.98;60.53
76819;BME280;65772;51.096;17.006;2023-11-19T07:20:29;99902.84;;;6.98;60.46
76819;BME280;65772;51.096;17.006;2023-11-19T07:23:00;99898.63;;;7.00;60.53
76819;BME280;65772;51.096;17.006;2023-11-19T07:25:32;99893.52;;;7.00;60.61
76819;BME280;65772;51.096;17.006;2023-11-19T07:28:03;99894.23;;;7.01;60.69
76819;BME280;65772;51.096;17.006;2023-11-19T07:30:34;99893.03;;;7.00;60.68
76819;BME280;65772;51.096;17.006;2023-11-19T07:33:04;99893.86;;;6.99;60.56
76819;BME280;65772;51.096;17.006;2023-11-19T07:35:35;99895.55;;;6.99;60.71
76819;BME280;65772;51.096;17.006;2023-11-19T07:38:05;99897.77;;;7.00;60.67
76819;BME280;65772;51.096;17.006;2023-11-19T07:40:36;99897.67;;;7.02;60.54
76819;BME280;65772;51.096;17.006;2023-11-19T07:43:06;99892.60;;;7.02;60.69
76819;BME280;65772;51.096;17.006;2023-11-19T07:45:37;99887.48;;;7.02;60.62
76819;BME280;65772;51.096;17.006;2023-11-19T07:48:08;99884.08;;;7.01;60.57
76819;BME280;65772;51.096;17.006;2023-11-19T07:50:38;99877.60;;;7.01;60.80
76819;BME280;65772;51.096;17.006;2023-11-19T07:53:09;99870.83;;;7.01;60.71
76819;BME280;65772;51.096;17.006;2023-11-19T07:55:42;99869.85;;;7.02;60.86
76819;BME280;65772;51.096;17.006;2023-11-19T07:58:13;99871.39;;;7.03;60.71
76819;BME280;65772;51.096;17.006;2023-11-19T08:00:43;99871.20;;;7.02;60.72
76819;BME280;65772;51.096;17.006;2023-11-19T08:03:14;99868.30;;;7.02;60.99
76819;BME280;65772;51.096;17.006;2023-11-19T08:05:45;99860.44;;;6.99;61.05
76819;BME280;65772;51.096;17.006;2023-11-19T08:08:16;99857.16;;;6.98;61.09
76819;BME280;65772;51.096;17.006;2023-11-19T08:10:47;99852.75;;;6.98;61.13
76819;BME280;65772;51.096;17.006;2023-11-19T08:13:18;99846.48;;;6.98;61.36
76819;BME280;65772;51.096;17.006;2023-11-19T08:15:50;99845.95;;;6.97;61.32
76819;BME280;65772;51.096;17.006;2023-11-19T08:18:20;99848.36;;;6.98;61.25
76819;BME280;65772;51.096;17.006;2023-11-19T08:20:51;99839.60;;;7.01;61.43
76819;BME280;65772;51.096;17.006;2023-11-19T08:23:23;99831.98;;;7.01;61.36
76819;BME280;65772;51.096;17.006;2023-11-19T08:25:54;99826.23;;;7.02;61.33
76819;BME280;65772;51.096;17.006;2023-11-19T08:28:29;99824.84;;;7.01;61.49
76819;BME280;65772;51.096;17.006;2023-11-19T08:31:00;99821.16;;;7.03;61.44
76819;BME280;65772;51.096;17.006;2023-11-19T08:33:31;99816.94;;;7.08;61.58
76819;BME280;65772;51.096;17.006;2023-11-19T08:36:01;99809.73;;;7.10;61.50
76819;BME280;65772;51.096;17.006;2023-11-19T08:38:33;99798.38;;;7.11;61.72
76819;BME280;65772;51.096;17.006;2023-11-19T08:41:04;99790.62;;;7.12;61.86
76819;BME280;65772;51.096;17.006;2023-11-19T08:43:35;99782.98;;;7.12;61.88
76819;BME280;65772;51.096;17.006;2023-11-19T08:46:10;99774.51;;;7.13;61.81
76819;BME280;65772;51.096;17.006;2023-11-19T08:48:41;99767.39;;;7.13;61.86
76819;BME280;65772;51.096;17.006;2023-11-19T08:51:12;99764.11;;;7.12;62.05
76819;BME280;65772;51.096;17.006;2023-11-19T08:53:42;99755.55;;;7.09;62.10
76819;BME280;65772;51.096;17.006;2023-11-19T08:56:13;99748.86;;;7.07;62.34
76819;BME280;65772;51.096;17.006;2023-11-19T08:58:43;99747.81;;;7.06;62.35
76819;BME280;65772;51.096;17.006;2023-11-19T09:01:14;99752.31;;;7.04;62.51
76819;BME280;65772;51.096;17.006;2023-11-19T09:03:44;99757.00;;;7.02;62.35
76819;BME280;65772;51.096;17.006;2023-11-19T09:06:15;99748.79;;;7.00;62.48
76819;BME280;65772;51.096;17.006;2023-11-19T09:08:46;99738.94;;;6.99;62.55
76819;BME280;65772;51.096;17.006;2023-11-19T09:11:18;99736.23;;;7.00;62.60
76819;BME280;65772;51.096;17.006;2023-11-19T09:13:48;99734.52;;;7.00;62.69
76819;BME280;65772;51.096;17.006;2023-11-19T09:16:19;99735.23;;;7.00;62.64
76819;BME280;65772;51.096;17.006;2023-11-19T09:18:49;99738.61;;;7.00;62.81
76819;BME280;65772;51.096;17.006;2023-11-19T09:21:20;99740.29;;;6.99;62.94
76819;BME280;65772;51.096;17.006;2023-11-19T09:23:51;99735.38;;;6.99;62.93
76819;BME280;65772;51.096;17.006;2023-11-19T09:26:23;99724.02;;;7.00;63.08
76819;BME280;65772;51.096;17.006;2023-11-19T09:28:53;99710.80;;;7.00;63.31
76819;BME280;65772;51.096;17.006;2023-11-19T09:31:24;99712.91;;;7.03;63.42
76819;BME280;65772;51.096;17.006;2023-11-19T09:33:55;99712.23;;;7.07;63.28
76819;BME280;65772;51.096;17.006;2023-11-19T09:36:25;99713.36;;;7.11;63.26
76819;BME280;65772;51.096;17.006;2023-11-19T09:38:56;99706.79;;;7.13;63.55
76819;BME280;65772;51.096;17.006;2023-11-19T09:41:31;99704.20;;;7.16;63.62
76819;BME280;65772;51.096;17.006;2023-11-19T09:44:04;99709.06;;;7.19;63.51
76819;BME280;65772;51.096;17.006;2023-11-19T09:46:36;99706.03;;;7.20;63.58
76819;BME280;65772;51.096;17.006;2023-11-19T09:49:07;99695.86;;;7.21;63.78
76819;BME280;65772;51.096;17.006;2023-11-19T09:51:38;99688.56;;;7.21;63.84
76819;BME280;65772;51.096;17.006;2023-11-19T09:54:09;99685.00;;;7.21;63.92
76819;BME280;65772;51.096;17.006;2023-11-19T09:56:42;99680.14;;;7.23;64.44
76819;BME280;65772;51.096;17.006;2023-11-19T09:59:14;99675.13;;;7.25;64.56
76819;BME280;65772;51.096;17.006;2023-11-19T10:01:44;99664.49;;;7.27;64.51
76819;BME280;65772;51.096;17.006;2023-11-19T10:04:16;99653.50;;;7.28;64.44
76819;BME280;65772;51.096;17.006;2023-11-19T10:06:48;99644.52;;;7.29;64.58
76819;BME280;65772;51.096;17.006;2023-11-19T10:09:20;99637.27;;;7.30;64.88
76819;BME280;65772;51.096;17.006;2023-11-19T10:11:50;99629.36;;;7.33;65.11
76819;BME280;65772;51.096;17.006;2023-11-19T10:14:24;99624.38;;;7.37;65.11
76819;BME280;65772;51.096;17.006;2023-11-19T10:16:55;99626.01;;;7.40;65.25
76819;BME280;65772;51.096;17.006;2023-11-19T10:19:26;99623.33;;;7.42;65.32
76819;BME280;65772;51.096;17.006;2023-11-19T10:22:04;99620.15;;;7.44;65.48
76819;BME280;65772;51.096;17.006;2023-11-19T10:24:35;99618.84;;;7.45;65.69
76819;BME280;65772;51.096;17.006;2023-11-19T10:27:11;99605.32;;;7.47;65.80
76819;BME280;65772;51.096;17.006;2023-11-19T10:29:46;99591.98;;;7.49;65.99
76819;BME280;65772;51.096;17.006;2023-11-19T10:32:17;99579.66;;;7.51;66.09
76819;BME280;65772;51.096;17.006;2023-11-19T10:35:06;99576.80;;;7.53;65.73
76819;BME280;65772;51.096;17.006;2023-11-19T10:37:37;99566.81;;;7.54;65.92
76819;BME280;65772;51.096;17.006;2023-11-19T10:40:10;99565.67;;;7.56;65.93
76819;BME280;65772;51.096;17.006;2023-11-19T10:42:42;99563.53;;;7.58;66.08
76819;BME280;65772;51.096;17.006;2023-11-19T10:45:24;99561.87;;;7.59;66.10
76819;BME280;65772;51.096;17.006;2023-11-19T10:47:55;99565.11;;;7.59;66.27
76819;BME280;65772;51.096;17.006;2023-11-19T10:50:27;99561.64;;;7.63;66.12
76819;BME280;65772;51.096;17.006;2023-11-19T10:52:59;99558.16;;;7.67;66.17
76819;BME280;65772;51.096;17.006;2023-11-19T10:55:32;99554.02;;;7.69;66.02
76819;BME280;65772;51.096;17.006;2023-11-19T10:58:05;99555.14;;;7.74;66.33
76819;BME280;65772;51.096;17.006;2023-11-19T11:00:43;99557.04;;;7.75;66.29
76819;BME280;65772;51.096;17.006;2023-11-19T11:03:18;99553.96;;;7.74;66.63
76819;BME280;65772;51.096;17.006;2023-11-19T11:05:50;99548.35;;;7.74;66.68
76819;BME280;65772;51.096;17.006;2023-11-19T11:08:22;99535.95;;;7.74;66.74
76819;BME280;65772;51.096;17.006;2023-11-19T11:10:54;99529.31;;;7.73;66.75
76819;BME280;65772;51.096;17.006;2023-11-19T11:13:27;99534.74;;;7.73;66.89
76819;BME280;65772;51.096;17.006;2023-11-19T11:15:59;99532.87;;;7.72;67.07
76819;BME280;65772;51.096;17.006;2023-11-19T11:18:30;99530.98;;;7.71;67.07
76819;BME280;65772;51.096;17.006;2023-11-19T11:21:04;99523.37;;;7.74;67.05
76819;BME280;65772;51.096;17.006;2023-11-19T11:24:20;99520.72;;;7.76;67.18
76819;BME280;65772;51.096;17.006;2023-11-19T11:30:18;99511.23;;;7.83;67.50
76819;BME280;65772;51.096;17.006;2023-11-19T11:32:54;99509.67;;;7.82;67.70
76819;BME280;65772;51.096;17.006;2023-11-19T11:35:33;99508.35;;;7.83;67.70
76819;BME280;65772;51.096;17.006;2023-11-19T11:38:09;99503.61;;;7.84;67.78
76819;BME280;65772;51.096;17.006;2023-11-19T11:40:40;99505.81;;;7.84;67.96
76819;BME280;65772;51.096;17.006;2023-11-19T11:46:56;99498.69;;;7.85;68.12
76819;BME280;65772;51.096;17.006;2023-11-19T11:49:30;99496.25;;;7.89;67.98
76819;BME280;65772;51.096;17.006;2023-11-19T11:52:02;99496.30;;;7.90;68.22
76819;BME280;65772;51.096;17.006;2023-11-19T11:54:36;99495.52;;;7.92;68.28
76819;BME280;65772;51.096;17.006;2023-11-19T11:57:12;99485.33;;;7.93;68.03
76819;BME280;65772;51.096;17.006;2023-11-19T11:59:53;99484.17;;;7.95;68.21
76819;BME280;65772;51.096;17.006;2023-11-19T12:02:26;99487.59;;;7.95;68.27
76819;BME280;65772;51.096;17.006;2023-11-19T12:05:11;99479.96;;;7.97;68.49
76819;BME280;65772;51.096;17.006;2023-11-19T12:07:44;99476.24;;;7.97;68.45
76819;BME280;65772;51.096;17.006;2023-11-19T12:10:25;99479.34;;;7.98;68.31
76819;BME280;65772;51.096;17.006;2023-11-19T12:13:01;99475.63;;;7.99;68.60
76819;BME280;65772;51.096;17.006;2023-11-19T12:15:31;99470.05;;;8.00;68.55
76819;BME280;65772;51.096;17.006;2023-11-19T12:18:02;99466.25;;;8.04;68.62
76819;BME280;65772;51.096;17.006;2023-11-19T12:20:34;99465.30;;;8.07;68.47
76819;BME280;65772;51.096;17.006;2023-11-19T12:23:06;99460.94;;;8.10;68.56
76819;BME280;65772;51.096;17.006;2023-11-19T12:25:38;99454.36;;;8.12;68.72
76819;BME280;65772;51.096;17.006;2023-11-19T12:28:13;99449.01;;;8.15;68.82
76819;BME280;65772;51.096;17.006;2023-11-19T12:30:44;99441.55;;;8.17;68.79
76819;BME280;65772;51.096;17.006;2023-11-19T12:33:15;99441.58;;;8.18;68.93
76819;BME280;65772;51.096;17.006;2023-11-19T12:35:47;99448.79;;;8.20;68.99
76819;BME280;65772;51.096;17.006;2023-11-19T12:38:21;99444.21;;;8.21;68.96
76819;BME280;65772;51.096;17.006;2023-11-19T12:41:05;99439.81;;;8.22;69.18
76819;BME280;65772;51.096;17.006;2023-11-19T12:43:36;99430.71;;;8.25;68.90
76819;BME280;65772;51.096;17.006;2023-11-19T12:46:19;99433.35;;;8.29;68.85
76819;BME280;65772;51.096;17.006;2023-11-19T12:48:51;99438.40;;;8.32;68.96
76819;BME280;65772;51.096;17.006;2023-11-19T12:51:22;99436.45;;;8.36;68.88
76819;BME280;65772;51.096;17.006;2023-11-19T12:53:53;99427.64;;;8.38;69.19
76819;BME280;65772;51.096;17.006;2023-11-19T12:56:25;99424.48;;;8.41;69.22
76819;BME280;65772;51.096;17.006;2023-11-19T12:58:55;99419.41;;;8.42;69.14
76819;BME280;65772;51.096;17.006;2023-11-19T13:01:26;99423.23;;;8.45;69.07
76819;BME280;65772;51.096;17.006;2023-11-19T13:03:57;99413.38;;;8.46;69.35
76819;BME280;65772;51.096;17.006;2023-11-19T13:06:28;99408.64;;;8.47;69.57
76819;BME280;65772;51.096;17.006;2023-11-19T13:08:58;99408.32;;;8.49;69.26
76819;BME280;65772;51.096;17.006;2023-11-19T13:11:36;99406.30;;;8.50;69.24
76819;BME280;65772;51.096;17.006;2023-11-19T13:14:08;99401.44;;;8.53;69.44
76819;BME280;65772;51.096;17.006;2023-11-19T13:16:41;99401.52;;;8.56;69.43
76819;BME280;65772;51.096;17.006;2023-11-19T13:19:12;99402.24;;;8.57;69.40
76819;BME280;65772;51.096;17.006;2023-11-19T13:21:43;99397.16;;;8.59;69.56
76819;BME280;65772;51.096;17.006;2023-11-19T13:24:16;99388.02;;;8.61;69.74
76819;BME280;65772;51.096;17.006;2023-11-19T13:26:46;99379.02;;;8.62;69.49